Time;durP1;ratioP1;P1;durP2;ratioP2;P2;SDS_P1;SDS_P2;PMS_P1;PMS_P2;Temp;Humidity;BMP_temperature;BMP_pressure;BME280_temperature;BME280_humidity;BME280_pressure;Samples;Min_cycle;Max_cycle;Signal;HPM_P1;HPM_P2
2023/03/18 00:02:20;;;;;;;4.47;2.90;;;14.00;86.70;;;;;;5137287;27;20473;-59
2023/03/18 00:04:48;;;;;;;6.87;2.90;;;13.90;87.00;;;;;;5137485;27;20469;-60
2023/03/18 00:07:15;;;;;;;5.70;2.77;;;13.90;87.60;;;;;;5137349;27;20449;-59
2023/03/18 00:09:42;;;;;;;6.33;3.07;;;13.90;87.80;;;;;;5136974;27;20448;-59
2023/03/18 00:12:09;;;;;;;7.37;3.53;;;13.90;88.00;;;;;;5137310;27;20449;-59
2023/03/18 00:14:36;;;;;;;4.77;2.20;;;13.80;88.30;;;;;;5137127;27;21043;-60
2023/03/18 00:17:03;;;;;;;13.40;3.37;;;13.80;88.60;;;;;;5137265;27;20442;-60
2023/03/18 00:19:32;;;;;;;6.37;2.70;;;13.80;88.70;;;;;;5136799;27;20931;-59
2023/03/18 00:22:00;;;;;;;7.10;3.93;;;13.80;88.60;;;;;;5136722;27;20795;-59
2023/03/18 00:24:27;;;;;;;4.57;2.67;;;13.80;88.70;;;;;;5137017;27;20442;-59
2023/03/18 00:26:54;;;;;;;5.93;3.03;;;13.80;89.40;;;;;;5136799;27;20928;-59
2023/03/18 00:29:22;;;;;;;4.80;2.63;;;13.80;89.10;;;;;;5136980;27;20450;-59
2023/03/18 00:31:49;;;;;;;10.90;4.10;;;13.80;89.50;;;;;;5136911;27;20442;-60
2023/03/18 00:34:16;;;;;;;10.00;3.40;;;13.80;89.80;;;;;;5136628;27;20489;-59
2023/03/18 00:36:44;;;;;;;3.97;3.00;;;13.80;90.30;;;;;;5136039;27;20495;-59
2023/03/18 00:39:12;;;;;;;4.93;3.10;;;13.80;90.90;;;;;;5136521;27;20955;-59
2023/03/18 00:41:39;;;;;;;9.00;3.60;;;13.60;91.20;;;;;;5136749;27;20502;-59
2023/03/18 00:44:06;;;;;;;7.03;3.10;;;13.60;91.60;;;;;;5136557;27;20897;-59
2023/03/18 00:46:35;;;;;;;7.47;3.47;;;13.50;91.60;;;;;;5136735;27;20449;-59
2023/03/18 00:49:04;;;;;;;7.63;3.43;;;13.50;91.80;;;;;;5136600;27;20478;-59
2023/03/18 00:51:33;;;;;;;5.33;2.90;;;13.50;92.10;;;;;;5136599;27;20449;-59
2023/03/18 00:54:03;;;;;;;6.27;3.00;;;13.50;92.10;;;;;;5136455;27;20538;-59
2023/03/18 00:56:32;;;;;;;4.50;3.43;;;13.50;92.10;;;;;;5136555;27;20474;-60
2023/03/18 00:59:00;;;;;;;8.50;2.80;;;13.50;92.20;;;;;;5136461;27;20446;-59
2023/03/18 01:01:27;;;;;;;8.77;4.07;;;13.40;92.40;;;;;;5136262;27;20445;-59
2023/03/18 01:03:54;;;;;;;5.57;3.23;;;13.50;92.50;;;;;;5136237;27;20535;-58
2023/03/18 01:06:23;;;;;;;5.00;3.20;;;13.40;92.90;;;;;;5136464;27;20482;-59
2023/03/18 01:08:51;;;;;;;5.37;2.70;;;13.40;92.90;;;;;;5136340;27;20453;-59
2023/03/18 01:11:18;;;;;;;4.90;3.30;;;13.40;93.00;;;;;;5137195;27;20474;-59
2023/03/18 01:13:46;;;;;;;5.30;2.83;;;13.30;93.10;;;;;;5137381;27;20830;-59
2023/03/18 01:16:14;;;;;;;5.90;3.40;;;13.30;93.40;;;;;;5137061;27;20446;-59
2023/03/18 01:18:41;;;;;;;9.77;3.30;;;13.30;93.50;;;;;;5136436;27;20947;-60
2023/03/18 01:21:09;;;;;;;9.53;4.00;;;13.30;93.70;;;;;;5136268;27;20479;-60
2023/03/18 01:23:36;;;;;;;5.73;3.57;;;13.30;93.80;;;;;;5136545;27;20462;-59
2023/03/18 01:26:03;;;;;;;6.97;3.43;;;13.30;93.60;;;;;;5136350;27;20445;-59
2023/03/18 01:28:30;;;;;;;4.40;3.17;;;13.40;93.90;;;;;;5135872;27;20864;-59
2023/03/18 01:30:58;;;;;;;5.63;3.00;;;13.40;93.60;;;;;;5136021;27;20540;-59
2023/03/18 01:33:27;;;;;;;7.10;3.10;;;13.40;93.50;;;;;;5135945;27;20466;-59
2023/03/18 01:35:55;;;;;;;5.30;3.20;;;13.50;93.40;;;;;;5135714;27;20474;-59
2023/03/18 01:38:23;;;;;;;4.17;3.20;;;13.50;93.20;;;;;;5135719;27;20950;-59
2023/03/18 01:40:51;;;;;;;4.33;2.70;;;13.50;93.10;;;;;;5135718;27;20537;-59
2023/03/18 01:43:20;;;;;;;4.53;2.63;;;13.50;93.10;;;;;;5135435;27;20466;-60
2023/03/18 01:45:50;;;;;;;5.63;3.20;;;13.50;93.00;;;;;;5135631;27;20478;-60
2023/03/18 01:48:20;;;;;;;7.53;3.30;;;13.50;93.10;;;;;;5134636;27;20422;-60
2023/03/18 01:50:50;;;;;;;4.77;3.30;;;13.50;93.00;;;;;;5135616;27;20426;-60
2023/03/18 01:53:18;;;;;;;5.20;2.93;;;13.50;93.10;;;;;;5135473;27;20466;-59
2023/03/18 01:55:47;;;;;;;4.93;3.63;;;13.50;94.00;;;;;;5135275;27;20478;-60
2023/03/18 01:58:19;;;;;;;8.33;3.53;;;13.40;94.20;;;;;;5134948;27;20445;-60
2023/03/18 02:00:52;;;;;;;5.13;3.30;;;13.30;94.30;;;;;;5135378;27;20433;-59
2023/03/18 02:03:21;;;;;;;4.20;2.87;;;13.30;94.30;;;;;;5134706;27;20487;-58
2023/03/18 02:05:49;;;;;;;8.17;3.37;;;13.30;94.20;;;;;;5134656;27;20931;-58
2023/03/18 02:08:16;;;;;;;7.57;2.90;;;13.20;94.20;;;;;;5135155;27;20471;-59
2023/03/18 02:10:44;;;;;;;5.60;3.27;;;13.20;94.40;;;;;;5134707;27;20943;-59
2023/03/18 02:13:12;;;;;;;6.03;3.67;;;13.20;94.40;;;;;;5134810;27;20501;-59
2023/03/18 02:15:46;;;;;;;9.13;3.33;;;13.10;94.40;;;;;;5134940;27;20482;-59
2023/03/18 02:18:16;;;;;;;5.63;3.20;;;13.10;94.50;;;;;;5134891;27;20430;-59
2023/03/18 02:21:07;;;;;;;6.80;3.33;;;13.10;94.50;;;;;;5134903;27;20540;-59
2023/03/18 02:23:42;;;;;;;6.30;4.23;;;13.20;94.50;;;;;;5134731;27;20458;-59
2023/03/18 02:26:15;;;;;;;4.80;3.10;;;13.20;94.30;;;;;;5134761;27;20486;-59
2023/03/18 02:28:45;;;;;;;7.10;3.50;;;13.10;94.20;;;;;;5134651;27;20434;-59
2023/03/18 02:31:14;;;;;;;6.47;3.20;;;13.20;94.20;;;;;;5134473;27;20524;-58
2023/03/18 02:33:42;;;;;;;8.37;3.33;;;13.10;94.20;;;;;;5134220;27;21031;-59
2023/03/18 02:36:13;;;;;;;4.93;3.13;;;13.10;94.10;;;;;;5134514;27;20573;-59
2023/03/18 02:38:43;;;;;;;8.60;3.40;;;13.20;94.00;;;;;;5134133;27;20515;-59
2023/03/18 02:41:15;;;;;;;7.33;2.70;;;13.10;93.80;;;;;;5134206;27;20823;-59
2023/03/18 02:43:44;;;;;;;3.57;3.00;;;13.10;94.10;;;;;;5134585;27;20469;-59
2023/03/18 02:46:26;;;;;;;5.77;3.10;;;13.10;94.40;;;;;;5134330;27;20441;-59
2023/03/18 02:48:53;;;;;;;6.77;3.60;;;13.10;94.50;;;;;;5134438;27;20437;-59
2023/03/18 02:51:20;;;;;;;8.73;3.70;;;13.00;94.60;;;;;;5124022;27;20494;-59
2023/03/18 02:53:48;;;;;;;9.77;3.80;;;13.00;94.50;;;;;;5113968;28;20842;-59
2023/03/18 02:56:15;;;;;;;8.07;3.73;;;13.00;94.70;;;;;;5113772;28;20996;-59
2023/03/18 02:58:43;;;;;;;7.90;3.90;;;13.00;94.60;;;;;;5113508;28;20454;-59
2023/03/18 03:01:10;;;;;;;8.90;3.90;;;13.00;94.60;;;;;;5113685;28;20477;-59
2023/03/18 03:03:38;;;;;;;6.40;3.37;;;13.00;94.40;;;;;;5113309;28;20873;-59
2023/03/18 03:06:06;;;;;;;9.03;3.50;;;12.90;94.10;;;;;;5113962;28;20443;-59
2023/03/18 03:08:32;;;;;;;7.30;3.13;;;12.90;93.70;;;;;;5113415;28;20447;-58
2023/03/18 03:10:59;;;;;;;6.97;3.17;;;12.80;93.40;;;;;;5113698;28;20450;-60
2023/03/18 03:13:27;;;;;;;8.50;3.47;;;12.70;93.20;;;;;;5113549;28;20498;-60
2023/03/18 03:15:55;;;;;;;7.00;3.33;;;12.60;93.00;;;;;;5113500;28;20479;-59
2023/03/18 03:18:22;;;;;;;7.70;2.90;;;12.60;92.90;;;;;;5113511;28;20476;-59
2023/03/18 03:20:51;;;;;;;6.43;3.60;;;12.50;92.80;;;;;;5113596;28;20470;-60
2023/03/18 03:23:17;;;;;;;9.83;4.00;;;12.50;92.70;;;;;;5113719;28;20566;-59
2023/03/18 03:25:44;;;;;;;11.33;3.97;;;12.50;92.80;;;;;;5113490;28;20844;-59
2023/03/18 03:28:12;;;;;;;8.17;3.77;;;12.40;92.70;;;;;;5113543;28;20442;-59
2023/03/18 03:30:39;;;;;;;5.03;3.80;;;12.40;92.70;;;;;;5113193;28;20814;-59
2023/03/18 03:33:07;;;;;;;7.47;3.70;;;12.30;92.70;;;;;;5113632;28;20463;-59
2023/03/18 03:35:34;;;;;;;9.20;3.50;;;12.20;92.70;;;;;;5113259;28;20508;-59
2023/03/18 03:38:01;;;;;;;5.97;3.90;;;12.20;92.80;;;;;;5113273;28;20461;-59
2023/03/18 03:40:28;;;;;;;4.37;3.00;;;12.10;92.80;;;;;;5113359;28;20452;-59
2023/03/18 03:42:55;;;;;;;7.17;3.30;;;12.10;93.00;;;;;;5113354;28;20466;-59
2023/03/18 03:45:22;;;;;;;7.10;3.67;;;12.00;93.00;;;;;;5112992;28;20817;-59
2023/03/18 03:47:49;;;;;;;7.03;3.40;;;12.00;93.00;;;;;;5113322;28;20461;-60
2023/03/18 03:50:18;;;;;;;7.53;4.53;;;11.90;93.10;;;;;;5112998;28;20887;-59
2023/03/18 03:52:45;;;;;;;7.03;3.37;;;11.90;93.10;;;;;;5113393;28;20463;-59
2023/03/18 03:55:16;;;;;;;8.33;3.60;;;11.90;93.20;;;;;;5113216;28;20569;-60
2023/03/18 03:57:42;;;;;;;4.43;3.30;;;11.80;93.20;;;;;;5113286;28;20480;-60
2023/03/18 04:00:12;;;;;;;5.07;3.87;;;11.80;93.40;;;;;;5113198;28;20443;-59
2023/03/18 04:02:39;;;;;;;9.30;4.77;;;11.70;93.30;;;;;;5113089;28;20499;-59
2023/03/18 04:05:07;;;;;;;10.50;3.70;;;11.70;93.40;;;;;;5113039;28;20492;-59
2023/03/18 04:07:36;;;;;;;6.10;3.77;;;11.60;93.60;;;;;;5112847;28;20447;-58
2023/03/18 04:10:03;;;;;;;7.27;3.23;;;11.60;93.60;;;;;;5113411;28;20446;-58
2023/03/18 04:12:30;;;;;;;4.07;2.97;;;11.50;93.70;;;;;;5117637;28;20840;-59
2023/03/18 04:14:57;;;;;;;8.67;3.80;;;11.50;93.90;;;;;;5117435;28;20474;-59
2023/03/18 04:17:23;;;;;;;10.53;3.93;;;11.50;94.10;;;;;;5116984;28;20451;-59
2023/03/18 04:19:50;;;;;;;6.40;3.57;;;11.50;94.40;;;;;;5116946;28;20439;-59
2023/03/18 04:22:17;;;;;;;8.03;3.53;;;11.50;94.70;;;;;;5116505;28;20470;-59
2023/03/18 04:24:45;;;;;;;7.40;3.80;;;11.50;95.00;;;;;;5116633;28;20474;-59
2023/03/18 04:27:12;;;;;;;15.40;4.53;;;11.50;95.30;;;;;;5116643;28;20450;-60
2023/03/18 04:29:39;;;;;;;8.67;3.30;;;11.50;96.80;;;;;;5116364;28;20454;-59
2023/03/18 04:32:06;;;;;;;7.10;3.87;;;11.60;98.00;;;;;;5116373;28;20470;-59
2023/03/18 04:34:33;;;;;;;5.47;3.90;;;11.70;98.60;;;;;;5116358;28;20439;-60
2023/03/18 04:37:01;;;;;;;9.00;3.83;;;11.70;99.10;;;;;;5116176;28;20482;-59
2023/03/18 04:39:27;;;;;;;8.27;4.43;;;11.80;99.40;;;;;;5115889;28;20944;-60
2023/03/18 04:41:57;;;;;;;6.20;4.10;;;11.80;99.70;;;;;;5116292;28;20455;-60
2023/03/18 04:44:24;;;;;;;5.13;3.27;;;11.90;99.80;;;;;;5115839;28;20451;-59
2023/03/18 04:46:52;;;;;;;9.53;3.67;;;11.90;99.90;;;;;;5116123;28;20478;-59
2023/03/18 04:49:19;;;;;;;10.90;3.70;;;11.90;99.80;;;;;;5115801;28;20851;-60
2023/03/18 04:51:46;;;;;;;7.93;4.03;;;12.00;99.50;;;;;;5115698;28;20940;-59
2023/03/18 04:54:13;;;;;;;4.40;3.23;;;12.00;99.20;;;;;;5115583;28;20474;-60
2023/03/18 04:56:39;;;;;;;9.13;4.37;;;11.90;99.60;;;;;;5115990;28;20582;-60
2023/03/18 04:59:08;;;;;;;8.87;3.50;;;12.00;99.60;;;;;;5116185;28;20447;-59
2023/03/18 05:01:34;;;;;;;9.20;3.50;;;12.00;99.50;;;;;;5115694;28;20447;-59
2023/03/18 05:04:01;;;;;;;6.77;4.00;;;12.10;99.60;;;;;;5115476;28;20983;-59
2023/03/18 05:06:30;;;;;;;10.30;3.10;;;12.10;99.60;;;;;;5115927;28;20443;-59
2023/03/18 05:08:57;;;;;;;5.90;3.50;;;12.10;99.60;;;;;;5115848;28;20936;-59
2023/03/18 05:11:24;;;;;;;9.43;4.20;;;12.10;99.70;;;;;;5115621;28;20525;-60
2023/03/18 05:13:51;;;;;;;6.53;3.50;;;12.10;99.60;;;;;;5115120;28;21023;-59
2023/03/18 05:16:19;;;;;;;6.90;3.63;;;12.10;99.60;;;;;;5115512;28;20569;-60
2023/03/18 05:18:47;;;;;;;5.03;3.20;;;12.10;99.70;;;;;;5115229;28;20855;-60
2023/03/18 05:21:14;;;;;;;7.27;3.40;;;12.10;99.70;;;;;;5115000;28;20508;-59
2023/03/18 05:23:41;;;;;;;4.00;3.30;;;12.00;99.50;;;;;;5115218;28;20467;-59
2023/03/18 05:26:10;;;;;;;7.70;3.60;;;12.00;99.30;;;;;;5115327;28;20807;-59
2023/03/18 05:28:38;;;;;;;9.43;3.10;;;12.00;99.30;;;;;;5115168;28;20497;-60
2023/03/18 05:31:05;;;;;;;5.73;3.10;;;12.00;99.10;;;;;;5115033;28;20482;-59
2023/03/18 05:33:33;;;;;;;6.20;2.90;;;12.00;98.90;;;;;;5115731;28;20978;-59
2023/03/18 05:35:59;;;;;;;6.90;2.90;;;12.00;99.00;;;;;;5114983;28;20527;-59
2023/03/18 05:38:26;;;;;;;10.50;3.70;;;12.00;99.10;;;;;;5114896;28;20462;-60
2023/03/18 05:40:53;;;;;;;4.83;3.30;;;12.00;99.10;;;;;;5114686;28;20443;-59
2023/03/18 05:43:20;;;;;;;4.60;3.17;;;12.00;99.20;;;;;;5114947;28;20467;-60
2023/03/18 05:45:47;;;;;;;4.13;3.20;;;12.00;99.10;;;;;;5115071;28;20538;-59
2023/03/18 05:48:14;;;;;;;6.40;3.50;;;12.00;98.80;;;;;;5114945;28;20465;-59
2023/03/18 05:50:43;;;;;;;6.10;3.63;;;12.00;98.60;;;;;;5114613;27;20512;-58
2023/03/18 05:53:10;;;;;;;6.93;3.47;;;12.00;98.40;;;;;;5114598;28;20479;-59
2023/03/18 05:55:38;;;;;;;4.60;4.00;;;12.00;98.10;;;;;;5114729;28;20852;-59
2023/03/18 05:58:06;;;;;;;6.60;3.07;;;12.00;97.90;;;;;;5114792;28;20439;-60
2023/03/18 06:00:32;;;;;;;5.20;3.20;;;12.00;97.70;;;;;;5114859;28;20503;-59
2023/03/18 06:03:01;;;;;;;8.63;4.87;;;12.00;97.50;;;;;;5114647;28;20467;-59
2023/03/18 06:05:28;;;;;;;10.30;4.47;;;12.00;97.40;;;;;;5114443;28;20467;-59
2023/03/18 06:07:57;;;;;;;5.43;3.60;;;12.00;97.30;;;;;;5114548;28;20486;-59
2023/03/18 06:10:24;;;;;;;8.53;4.40;;;12.00;97.30;;;;;;5114410;28;20580;-59
2023/03/18 06:12:54;;;;;;;8.70;5.10;;;12.00;97.10;;;;;;5114275;28;20511;-59
2023/03/18 06:15:21;;;;;;;6.10;4.17;;;12.00;97.10;;;;;;5114352;28;20880;-60
2023/03/18 06:17:48;;;;;;;8.03;5.20;;;12.00;97.00;;;;;;5113977;28;20864;-60
2023/03/18 06:20:17;;;;;;;10.37;4.97;;;11.90;97.00;;;;;;5114341;28;20446;-59
2023/03/18 06:22:48;;;;;;;10.50;5.17;;;11.90;96.90;;;;;;5114239;28;20459;-59
2023/03/18 06:25:17;;;;;;;7.00;4.70;;;11.90;96.80;;;;;;5114244;28;20438;-60
2023/03/18 06:27:45;;;;;;;9.53;4.90;;;11.90;96.70;;;;;;5114214;28;20447;-59
2023/03/18 06:30:13;;;;;;;9.80;4.80;;;12.00;96.70;;;;;;5114058;28;20445;-58
2023/03/18 06:32:40;;;;;;;7.90;3.60;;;12.00;96.70;;;;;;5113583;28;20976;-59
2023/03/18 06:35:07;;;;;;;5.60;3.60;;;11.90;96.60;;;;;;5113822;28;20864;-59
2023/03/18 06:37:34;;;;;;;7.90;4.20;;;12.00;96.60;;;;;;5113779;28;20490;-59
2023/03/18 06:40:00;;;;;;;5.27;3.10;;;12.00;96.60;;;;;;5113987;28;20434;-59
2023/03/18 06:42:29;;;;;;;6.97;3.03;;;12.00;96.70;;;;;;5113608;28;20466;-59
2023/03/18 06:44:55;;;;;;;5.03;3.57;;;12.00;96.80;;;;;;5113867;28;20504;-59
2023/03/18 06:47:22;;;;;;;5.43;2.83;;;12.00;96.80;;;;;;5113575;28;20948;-57
2023/03/18 06:49:49;;;;;;;4.00;3.17;;;12.10;96.90;;;;;;5113829;28;20443;-59
2023/03/18 06:52:17;;;;;;;6.17;3.47;;;12.10;96.90;;;;;;5113725;28;20883;-59
2023/03/18 06:54:44;;;;;;;7.27;3.70;;;12.10;96.90;;;;;;5113852;28;20451;-58
2023/03/18 06:57:12;;;;;;;5.10;3.30;;;12.20;97.90;;;;;;5114446;28;20544;-58
2023/03/18 06:59:40;;;;;;;6.63;3.37;;;12.30;98.00;;;;;;5134296;28;20903;-59
2023/03/18 07:02:07;;;;;;;8.07;4.20;;;12.40;98.60;;;;;;5133910;27;20442;-59
2023/03/18 07:04:34;;;;;;;5.00;3.37;;;12.50;98.90;;;;;;5134297;28;20453;-59
2023/03/18 07:07:01;;;;;;;4.10;3.70;;;12.60;99.20;;;;;;5134234;28;20450;-58
2023/03/18 07:09:27;;;;;;;6.07;4.00;;;12.60;99.40;;;;;;5133942;28;20511;-59
2023/03/18 07:11:54;;;;;;;5.00;4.13;;;12.70;99.60;;;;;;5135462;28;20440;-59
2023/03/18 07:14:21;;;;;;;4.17;3.67;;;12.80;99.50;;;;;;5134378;28;20791;-59
2023/03/18 07:16:49;;;;;;;6.23;4.00;;;12.80;99.50;;;;;;5134359;28;20474;-59
2023/03/18 07:19:16;;;;;;;5.47;3.50;;;12.80;99.40;;;;;;5134261;28;20445;-59
2023/03/18 07:21:44;;;;;;;5.13;3.27;;;12.90;99.20;;;;;;5134295;28;20458;-58
2023/03/18 07:24:11;;;;;;;4.03;3.07;;;13.00;99.10;;;;;;5133869;27;20474;-59
2023/03/18 07:26:38;;;;;;;8.20;3.77;;;13.10;99.00;;;;;;5134259;28;20450;-59
2023/03/18 07:29:05;;;;;;;6.10;3.43;;;13.20;99.00;;;;;;5135004;28;20449;-59
2023/03/18 07:31:32;;;;;;;5.40;3.97;;;13.30;98.90;;;;;;5133895;28;20450;-58
2023/03/18 07:34:00;;;;;;;4.17;3.63;;;13.40;98.80;;;;;;5134033;28;20466;-59
2023/03/18 07:36:27;;;;;;;4.90;3.17;;;13.60;98.70;;;;;;5133915;28;20477;-59
2023/03/18 07:38:53;;;;;;;3.80;3.00;;;13.70;98.60;;;;;;5133813;28;20501;-60
2023/03/18 07:41:20;;;;;;;3.03;2.83;;;13.90;98.50;;;;;;5134018;28;20578;-59
2023/03/18 07:43:47;;;;;;;5.13;3.70;;;14.10;97.90;;;;;;5133578;27;21000;-59
2023/03/18 07:46:14;;;;;;;4.70;3.13;;;14.20;97.70;;;;;;5137827;27;20438;-59
2023/03/18 07:48:40;;;;;;;3.03;2.60;;;14.40;97.40;;;;;;5137880;27;20453;-60
2023/03/18 07:51:08;;;;;;;7.83;2.83;;;14.60;97.30;;;;;;5137567;27;21002;-59
2023/03/18 07:53:36;;;;;;;7.73;2.87;;;14.90;97.00;;;;;;5137695;27;20469;-59
2023/03/18 07:56:03;;;;;;;6.40;2.90;;;15.00;96.40;;;;;;5137706;27;20915;-60
2023/03/18 07:58:30;;;;;;;4.00;3.00;;;15.20;95.30;;;;;;5137718;27;20449;-59
2023/03/18 08:00:58;;;;;;;4.07;2.77;;;15.20;94.90;;;;;;5137595;27;20449;-59
2023/03/18 08:03:25;;;;;;;6.50;3.50;;;15.40;94.60;;;;;;5137655;27;20465;-60
2023/03/18 08:05:52;;;;;;;5.90;2.73;;;15.50;94.10;;;;;;5137379;27;20786;-59
2023/03/18 08:08:20;;;;;;;3.63;2.80;;;15.50;93.90;;;;;;5137470;27;20449;-59
2023/03/18 08:10:47;;;;;;;3.60;2.67;;;15.50;94.10;;;;;;5137470;27;20446;-59
2023/03/18 08:13:14;;;;;;;5.33;3.70;;;15.60;93.60;;;;;;5137345;27;20470;-59
2023/03/18 08:15:41;;;;;;;6.60;3.03;;;15.60;93.60;;;;;;5137091;27;20907;-59
2023/03/18 08:18:08;;;;;;;4.67;2.90;;;15.70;93.30;;;;;;5136901;27;21002;-59
2023/03/18 08:20:35;;;;;;;4.40;3.20;;;15.70;93.10;;;;;;5136899;27;21038;-59
2023/03/18 08:23:02;;;;;;;5.83;3.20;;;15.70;93.10;;;;;;5137037;27;20493;-58
2023/03/18 08:25:31;;;;;;;6.70;3.37;;;15.70;93.10;;;;;;5137158;27;20445;-59
2023/03/18 08:27:58;;;;;;;3.20;2.80;;;15.70;93.30;;;;;;5137127;27;20450;-59
2023/03/18 08:30:27;;;;;;;4.30;2.90;;;15.70;93.50;;;;;;5136745;27;20939;-59
2023/03/18 08:32:54;;;;;;;4.13;3.17;;;15.70;93.70;;;;;;5136890;27;20865;-59
2023/03/18 08:35:21;;;;;;;4.17;3.77;;;15.70;93.90;;;;;;5136741;27;20817;-58
2023/03/18 08:37:49;;;;;;;3.30;3.00;;;15.70;93.30;;;;;;5136437;27;21344;-59
2023/03/18 08:40:17;;;;;;;5.90;3.03;;;15.60;93.40;;;;;;5136639;27;20927;-59
2023/03/18 08:42:45;;;;;;;5.13;3.10;;;15.60;93.40;;;;;;5137383;27;20790;-59
2023/03/18 08:45:13;;;;;;;3.23;2.40;;;15.50;93.40;;;;;;5137030;27;20437;-59
2023/03/18 08:47:40;;;;;;;5.30;3.40;;;15.50;93.30;;;;;;5136721;27;20466;-59
2023/03/18 08:50:07;;;;;;;3.23;2.70;;;15.50;93.50;;;;;;5136277;27;20962;-59
2023/03/18 08:52:36;;;;;;;4.40;2.87;;;15.60;93.60;;;;;;5116070;28;20463;-59
2023/03/18 08:55:03;;;;;;;3.80;2.70;;;15.60;93.50;;;;;;5115944;28;20445;-59
2023/03/18 08:57:30;;;;;;;4.70;2.67;;;15.70;93.40;;;;;;5115397;28;20483;-59
2023/03/18 08:59:58;;;;;;;4.50;3.10;;;15.70;93.10;;;;;;5116220;28;20493;-60
2023/03/18 09:02:26;;;;;;;3.23;2.80;;;15.80;93.00;;;;;;5115710;28;20511;-59
2023/03/18 09:04:54;;;;;;;3.03;2.70;;;15.80;93.00;;;;;;5115407;28;20455;-59
2023/03/18 09:07:20;;;;;;;5.40;3.00;;;15.80;93.00;;;;;;5115456;28;20451;-59
2023/03/18 09:09:47;;;;;;;4.07;2.50;;;15.80;92.70;;;;;;5115357;28;20849;-59
2023/03/18 09:12:15;;;;;;;4.73;3.10;;;15.80;92.60;;;;;;5115773;28;20477;-59
2023/03/18 09:14:42;;;;;;;7.60;3.10;;;15.80;92.40;;;;;;5116419;28;20462;-59
2023/03/18 09:17:10;;;;;;;3.43;2.27;;;15.80;92.40;;;;;;5115517;28;20474;-59
2023/03/18 09:19:37;;;;;;;4.97;2.47;;;15.80;92.60;;;;;;5115598;28;20442;-59
2023/03/18 09:22:04;;;;;;;4.00;2.50;;;15.80;92.80;;;;;;5115133;28;20966;-59
2023/03/18 09:24:31;;;;;;;5.63;3.20;;;15.90;92.70;;;;;;5115427;28;20454;-58
2023/03/18 09:26:58;;;;;;;4.50;3.00;;;16.10;92.10;;;;;;5115459;28;20454;-59
2023/03/18 09:29:26;;;;;;;3.43;3.00;;;16.20;91.50;;;;;;5115361;28;20533;-59
2023/03/18 09:31:53;;;;;;;4.77;2.77;;;16.30;91.50;;;;;;5115578;28;20451;-59
2023/03/18 09:34:21;;;;;;;2.80;2.47;;;16.40;91.30;;;;;;5115371;28;20553;-59
2023/03/18 09:36:50;;;;;;;3.83;2.63;;;16.50;90.90;;;;;;5115229;28;20478;-58
2023/03/18 09:39:17;;;;;;;6.87;2.47;;;16.60;90.50;;;;;;5115217;28;20549;-59
2023/03/18 09:41:59;;;;;;;2.43;2.23;;;16.70;90.20;;;;;;5115218;28;20453;-59
2023/03/18 09:44:30;;;;;;;5.17;2.57;;;16.80;90.00;;;;;;5115134;28;20438;-58
2023/03/18 09:47:10;;;;;;;3.20;2.10;;;16.90;89.40;;;;;;5115190;28;20431;-59
2023/03/18 09:49:48;;;;;;;2.70;2.40;;;17.10;89.40;;;;;;5115193;28;20434;-59
2023/03/18 09:52:21;;;;;;;3.73;2.40;;;17.20;88.30;;;;;;5114596;28;21093;-59
2023/03/18 09:54:56;;;;;;;2.90;1.80;;;17.40;87.40;;;;;;5114948;28;20489;-59
2023/03/18 09:57:26;;;;;;;5.50;2.40;;;17.50;86.50;;;;;;5117835;27;20481;-59
2023/03/18 09:59:59;;;;;;;7.03;2.53;;;17.70;86.30;;;;;;5135430;27;20422;-59
2023/03/18 10:02:32;;;;;;;4.00;1.90;;;17.90;86.40;;;;;;5135178;27;20466;-59
2023/03/18 10:05:04;;;;;;;4.40;2.37;;;18.30;84.70;;;;;;5135548;27;20430;-59
2023/03/18 10:07:35;;;;;;;2.30;1.80;;;18.60;84.10;;;;;;5134717;27;20452;-59
2023/03/18 10:10:09;;;;;;;3.60;2.30;;;19.00;79.40;;;;;;5135638;27;20918;-60
2023/03/18 10:12:38;;;;;;;1.90;1.50;;;19.30;76.20;;;;;;5136926;27;20466;-60
2023/03/18 10:15:15;;;;;;;2.40;2.03;;;19.60;73.90;;;;;;5136683;27;20449;-59
2023/03/18 10:17:46;;;;;;;4.53;2.23;;;19.70;74.00;;;;;;5136646;27;20462;-59
2023/03/18 10:20:19;;;;;;;2.83;1.70;;;20.00;73.50;;;;;;5135641;27;20449;-59
2023/03/18 10:23:02;;;;;;;2.30;1.57;;;20.30;69.30;;;;;;5134906;27;21002;-59
2023/03/18 10:25:35;;;;;;;4.60;2.30;;;20.40;66.10;;;;;;5135248;27;20526;-59
2023/03/18 10:28:49;;;;;;;2.40;2.03;;;20.60;67.40;;;;;;5135193;27;20441;-60
2023/03/18 10:31:28;;;;;;;3.67;2.00;;;21.00;67.30;;;;;;5051569;28;20425;-60
2023/03/18 10:33:58;;;;;;;5.13;1.63;;;21.40;61.90;;;;;;5131930;27;20461;-58
2023/03/18 10:36:32;;;;;;;3.93;1.80;;;21.80;60.60;;;;;;5134563;27;20538;-59
2023/03/18 10:39:01;;;;;;;7.00;1.90;;;22.30;59.30;;;;;;5134365;27;20486;-60
2023/03/18 10:41:32;;;;;;;3.03;1.37;;;22.90;57.80;;;;;;5134339;27;20935;-57
2023/03/18 10:44:03;;;;;;;2.20;1.50;;;23.70;55.90;;;;;;5134600;27;20466;-58
2023/03/18 10:46:31;;;;;;;2.93;1.50;;;24.40;54.00;;;;;;5134646;27;20517;-57
2023/03/18 10:49:03;;;;;;;3.57;1.73;;;25.00;50.60;;;;;;5134365;27;20442;-58
2023/03/18 10:51:38;;;;;;;4.87;2.20;;;25.40;48.40;;;;;;5134947;27;20442;-58
2023/03/18 10:54:12;;;;;;;4.23;2.10;;;25.90;47.00;;;;;;5134400;27;20461;-57
2023/03/18 10:56:39;;;;;;;3.80;2.20;;;26.40;44.80;;;;;;5134502;27;20488;-58
2023/03/18 10:59:14;;;;;;;3.93;1.60;;;26.70;43.50;;;;;;5133697;27;20827;-57
2023/03/18 11:01:42;;;;;;;3.70;1.70;;;27.20;42.50;;;;;;5134494;28;20520;-57
2023/03/18 11:04:13;;;;;;;3.97;2.13;;;27.40;41.20;;;;;;5133906;27;20469;-58
2023/03/18 11:06:45;;;;;;;2.30;1.70;;;27.80;41.90;;;;;;5134484;28;20525;-57
2023/03/18 11:09:15;;;;;;;2.47;1.70;;;28.40;40.20;;;;;;5133982;28;20426;-58
2023/03/18 11:11:43;;;;;;;2.80;1.50;;;28.80;38.10;;;;;;5134243;28;20434;-58
2023/03/18 11:14:15;;;;;;;2.00;1.37;;;29.20;37.20;;;;;;5133860;27;20461;-58
2023/03/18 11:16:48;;;;;;;4.07;1.60;;;29.60;36.90;;;;;;5134224;28;20426;-58
2023/03/18 11:19:31;;;;;;;3.90;1.47;;;29.70;34.70;;;;;;5134923;27;20473;-58
2023/03/18 11:22:10;;;;;;;3.50;1.33;;;30.00;35.30;;;;;;5136137;27;20543;-58
2023/03/18 11:24:42;;;;;;;1.73;1.43;;;30.20;33.50;;;;;;5138470;27;20526;-57
2023/03/18 11:27:27;;;;;;;2.40;1.77;;;30.00;33.00;;;;;;5138304;27;20476;-58
2023/03/18 11:29:57;;;;;;;3.30;1.63;;;29.50;34.00;;;;;;5138282;27;20501;-58
2023/03/18 11:32:26;;;;;;;3.50;2.17;;;28.90;35.30;;;;;;5138176;27;20465;-57
2023/03/18 11:34:59;;;;;;;3.70;1.30;;;27.80;36.40;;;;;;5137729;27;20947;-58
2023/03/18 11:37:35;;;;;;;1.90;1.60;;;26.80;38.40;;;;;;5137660;27;21020;-58
2023/03/18 11:40:21;;;;;;;2.00;1.40;;;25.90;40.30;;;;;;5138055;27;20428;-57
2023/03/18 11:42:49;;;;;;;2.87;1.57;;;25.20;42.10;;;;;;5138070;27;20458;-58
2023/03/18 11:45:30;;;;;;;2.77;1.70;;;24.90;42.80;;;;;;5137897;27;20530;-58
2023/03/18 11:47:58;;;;;;;1.90;1.47;;;24.70;43.60;;;;;;5137935;27;20453;-58
2023/03/18 11:50:30;;;;;;;2.33;1.50;;;24.40;43.70;;;;;;5135226;27;20449;-57
2023/03/18 11:53:06;;;;;;;2.60;1.53;;;24.30;44.40;;;;;;5117200;28;20462;-57
2023/03/18 11:55:40;;;;;;;2.27;1.60;;;24.10;44.70;;;;;;5117053;28;20450;-57
2023/03/18 11:58:31;;;;;;;2.80;1.40;;;23.80;44.90;;;;;;5117071;28;20493;-57
2023/03/18 12:01:09;;;;;;;1.53;1.20;;;23.70;45.60;;;;;;5117759;28;20485;-58
2023/03/18 12:04:14;;;;;;;2.87;1.73;;;23.60;46.20;;;;;;5116530;28;20475;-58
2023/03/18 12:06:49;;;;;;;2.57;1.17;;;23.60;45.70;;;;;;5116993;28;20431;-57
2023/03/18 12:09:24;;;;;;;3.77;1.73;;;23.70;46.00;;;;;;5116741;28;20428;-58
2023/03/18 12:12:00;;;;;;;1.60;1.30;;;24.10;45.20;;;;;;5116562;28;20825;-58
2023/03/18 12:14:35;;;;;;;4.07;1.13;;;24.40;44.40;;;;;;5117093;28;20527;-57
2023/03/18 12:17:15;;;;;;;3.93;1.47;;;24.60;44.30;;;;;;5116924;28;20796;-58
2023/03/18 12:20:39;;;;;;;3.77;1.67;;;24.80;43.70;;;;;;5116670;28;20427;-58
2023/03/18 12:23:21;;;;;;;1.50;1.40;;;24.80;43.40;;;;;;4979908;28;20478;-58
2023/03/18 12:26:00;;;;;;;3.40;1.80;;;24.90;44.00;;;;;;5116527;28;20437;-58
2023/03/18 12:28:47;;;;;;;4.60;1.50;;;25.00;43.30;;;;;;5116593;28;20423;-58
2023/03/18 12:31:36;;;;;;;3.20;1.70;;;25.30;44.00;;;;;;5116190;28;20423;-59
2023/03/18 12:34:04;;;;;;;1.40;1.30;;;25.80;43.60;;;;;;5111950;28;20483;-58
2023/03/18 12:36:43;;;;;;;5.70;1.90;;;26.20;42.10;;;;;;5116213;28;20438;-58
2023/03/18 12:39:44;;;;;;;5.20;1.80;;;26.20;42.00;;;;;;5116057;28;20531;-58
2023/03/18 12:42:17;;;;;;;3.73;1.80;;;26.20;41.90;;;;;;5116131;28;20435;-59
2023/03/18 12:44:56;;;;;;;1.37;1.20;;;26.10;41.60;;;;;;5116345;28;20427;-58
2023/03/18 12:47:28;;;;;;;3.13;1.80;;;25.90;41.70;;;;;;5116254;28;20459;-58
2023/03/18 12:50:00;;;;;;;1.60;1.20;;;25.60;41.70;;;;;;5116159;28;20435;-59
2023/03/18 12:52:31;;;;;;;2.37;1.20;;;25.20;41.30;;;;;;5115997;28;20463;-58
2023/03/18 12:55:04;;;;;;;6.00;1.60;;;24.80;42.60;;;;;;5130942;27;20446;-56
2023/03/18 12:57:38;;;;;;;4.13;1.63;;;24.50;43.90;;;;;;5136111;27;20471;-57
2023/03/18 13:00:14;;;;;;;7.00;1.60;;;24.10;44.00;;;;;;5136571;27;20526;-57